.
WxDataArchive / Data Records for 2011-12-26
2011-12-25 December 2011 2011-12-27

Data Records for Monday, 26 December 2011

Time	Temp	Chill	HIndex	Humid	Dewpt	 Wind 	HiWind	WindDir	Rain 	Barom 
-----	----	-----	------	-----	-----	------	------	-------	-----	----- 
00:00	38.0	38.0	38.0	68	28.4	0	1	248	0.00	30.294 
00:05	38.0	38.0	38.0	68	28.4	0	1	248	0.00	30.294 
00:10	37.9	37.9	37.9	68	28.3	0	2	248	0.00	30.294 
00:15	37.9	37.9	37.9	68	28.3	0	1	248	0.00	30.292 
00:20	37.9	37.9	37.9	69	28.7	0	1	248	0.00	30.292 
00:25	37.8	37.8	37.8	69	28.6	0	1	248	0.00	30.292 
00:30	37.8	37.8	37.8	69	28.6	0	2	248	0.00	30.289 
00:35	37.6	37.6	37.6	69	28.4	0	3	248	0.00	30.289 
00:40	37.6	37.6	37.6	69	28.4	0	3	248	0.00	30.289 
00:45	37.5	37.5	37.5	69	28.3	0	1	248	0.00	30.278 
00:50	37.3	37.3	37.3	70	28.4	0	1	248	0.00	30.278 
00:55	37.3	37.3	37.3	70	28.4	0	2	248	0.00	30.278 
01:00	37.2	37.2	37.2	70	28.3	0	1	248	0.00	30.277 
01:05	36.9	36.9	36.9	70	28.0	0	1	248	0.00	30.277 
01:10	36.6	36.6	36.6	71	28.1	0	1	248	0.00	30.277 
01:15	36.3	36.3	36.3	71	27.8	0	0	---	0.00	30.273 
01:20	36.0	36.0	36.0	71	27.5	0	0	---	0.00	30.273 
01:25	35.6	35.6	35.6	72	27.5	0	0	---	0.00	30.273 
01:30	35.3	35.3	35.3	73	27.5	0	0	---	0.00	30.270 
01:35	34.9	34.9	34.9	73	27.1	0	0	---	0.00	30.270 
01:40	34.1	34.1	34.1	74	26.7	0	0	---	0.00	30.270 
01:45	33.7	33.7	33.7	75	26.6	0	1	248	0.00	30.276 
01:50	33.4	33.4	33.4	77	27.0	0	1	248	0.00	30.276 
01:55	33.2	33.2	33.2	78	27.1	0	1	248	0.00	30.276 
02:00	33.2	33.2	33.2	78	27.1	0	0	---	0.00	30.282 
02:05	33.2	33.2	33.2	79	27.4	0	1	248	0.00	30.282 
02:10	33.2	33.2	33.2	79	27.4	0	1	248	0.00	30.282 
02:15	33.2	33.2	33.2	79	27.4	0	1	248	0.00	30.288 
02:20	33.2	33.2	33.2	79	27.4	0	2	248	0.00	30.288 
02:25	33.2	33.2	33.2	79	27.4	0	1	248	0.00	30.288 
02:30	33.2	33.2	33.2	79	27.4	0	1	248	0.00	30.290 
02:35	33.2	33.2	33.2	79	27.4	0	1	248	0.00	30.290 
02:40	33.2	33.2	33.2	79	27.4	0	1	248	0.00	30.290 
02:45	33.4	33.4	33.4	79	27.6	0	1	248	0.00	30.298 
02:50	33.5	33.5	33.5	79	27.7	0	2	248	0.00	30.298 
02:55	33.5	33.5	33.5	78	27.4	0	1	248	0.00	30.298 
03:00	33.7	33.7	33.7	78	27.6	0	1	248	0.00	30.305 
03:05	33.7	33.7	33.7	77	27.3	0	2	248	0.00	30.305 
03:10	33.8	33.8	33.8	77	27.4	0	3	248	0.00	30.305 
03:15	34.0	34.0	34.0	77	27.6	0	1	248	0.00	30.313 
03:20	34.1	34.1	34.1	76	27.3	0	1	248	0.00	30.313 
03:25	34.3	34.3	34.3	76	27.5	0	1	248	0.00	30.313 
03:30	34.4	34.4	34.4	76	27.6	0	1	248	0.00	30.315 
03:35	34.4	34.4	34.4	75	27.3	0	1	248	0.00	30.315 
03:40	34.4	34.4	34.4	75	27.3	0	1	248	0.00	30.315 
03:45	34.6	34.6	34.6	75	27.5	0	1	248	0.00	30.319 
03:50	34.6	34.6	34.6	75	27.5	0	1	248	0.00	30.319 
03:55	34.6	34.6	34.6	75	27.5	0	2	248	0.00	30.319 
04:00	34.6	34.6	34.6	75	27.5	0	2	248	0.00	30.324 
04:05	34.6	34.6	34.6	75	27.5	0	1	248	0.00	30.324 
04:10	34.7	34.7	34.7	74	27.3	0	2	248	0.00	30.324 
04:15	34.9	34.9	34.9	74	27.5	0	2	248	0.00	30.327 
04:20	34.9	34.9	34.9	74	27.5	0	1	248	0.00	30.327 
04:25	34.9	34.9	34.9	74	27.5	0	1	248	0.00	30.327 
04:30	34.9	34.9	34.9	74	27.5	0	1	248	0.00	30.330 
04:35	34.9	34.9	34.9	74	27.5	0	1	248	0.00	30.330 
04:40	34.9	34.9	34.9	74	27.5	0	1	248	0.00	30.330 
04:45	34.9	34.9	34.9	74	27.5	0	1	248	0.00	30.330 
04:50	34.9	34.9	34.9	73	27.1	0	1	248	0.00	30.330 
04:55	35.0	35.0	35.0	73	27.2	0	1	248	0.00	30.330 
05:00	34.9	34.9	34.9	73	27.1	0	0	---	0.00	30.334 
05:05	34.9	34.9	34.9	73	27.1	0	1	248	0.00	30.334 
05:10	34.9	34.9	34.9	73	27.1	0	1	248	0.00	30.334 
05:15	34.7	34.7	34.7	73	26.9	0	0	---	0.00	30.342 
05:20	34.6	34.6	34.6	73	26.9	0	0	---	0.00	30.342 
05:25	34.4	34.4	34.4	73	26.7	0	1	248	0.00	30.342 
05:30	34.3	34.3	34.3	74	26.9	0	1	248	0.00	30.346 
05:35	34.1	34.1	34.1	74	26.7	0	2	248	0.00	30.346 
05:40	34.0	34.0	34.0	74	26.6	0	2	248	0.00	30.346 
05:45	33.8	33.8	33.8	74	26.4	0	1	248	0.00	30.346 
05:50	33.5	33.5	33.5	74	26.1	0	1	248	0.00	30.346 
05:55	33.4	33.4	33.4	74	26.0	0	2	248	0.00	30.346 
06:00	33.1	33.1	33.1	74	25.7	0	1	248	0.00	30.348 
06:05	32.9	32.9	32.9	75	25.9	0	1	248	0.00	30.348 
06:10	32.7	32.7	32.7	75	25.7	0	1	248	0.00	30.348 
06:15	32.4	32.4	32.4	75	25.4	0	1	248	0.00	30.352 
06:20	32.1	32.1	32.1	76	25.4	0	0	---	0.00	30.352 
06:25	31.8	31.8	31.8	76	25.1	0	0	---	0.00	30.352 
06:30	31.5	31.5	31.5	76	24.8	0	0	---	0.00	30.353 
06:35	31.2	31.2	31.2	76	24.5	0	0	---	0.00	30.353 
06:40	30.7	30.7	30.7	77	24.4	0	0	---	0.00	30.353 
06:45	30.4	30.4	30.4	77	24.1	0	0	---	0.00	30.352 
06:50	30.0	30.0	30.0	78	24.0	0	0	---	0.00	30.352 
06:55	29.7	29.7	29.7	78	23.7	0	0	---	0.00	30.352 
07:00	29.4	29.4	29.4	78	23.4	0	0	---	0.00	30.354 
07:05	29.1	29.1	29.1	79	23.4	0	0	---	0.00	30.354 
07:10	28.8	28.8	28.8	81	23.7	0	0	---	0.00	30.354 
07:15	28.5	28.5	28.5	81	23.4	0	0	---	0.00	30.352 
07:20	28.2	28.2	28.2	81	23.1	0	0	---	0.00	30.352 
07:25	28.1	28.1	28.1	81	23.0	0	0	---	0.00	30.352 
07:30	27.8	27.8	27.8	81	22.7	0	0	---	0.00	30.354 
07:35	27.5	27.5	27.5	81	22.4	0	0	---	0.00	30.354 
07:40	27.3	27.3	27.3	83	22.8	0	0	---	0.00	30.354 
07:45	27.2	27.2	27.2	83	22.7	0	0	---	0.00	30.353 
07:50	27.0	27.0	27.0	84	22.8	0	0	---	0.00	30.353 
07:55	26.9	26.9	26.9	84	22.7	0	0	---	0.00	30.353 
08:00	26.7	26.7	26.7	84	22.5	0	0	---	0.00	30.353 
08:05	26.7	26.7	26.7	84	22.5	0	0	---	0.00	30.353 
08:10	26.7	26.7	26.7	85	22.8	0	0	---	0.00	30.353 
08:15	26.6	26.6	26.6	85	22.7	0	0	---	0.00	30.353 
08:20	26.6	26.6	26.6	85	22.7	0	0	---	0.00	30.353 
08:25	26.6	26.6	26.6	86	23.0	0	0	---	0.00	30.353 
08:30	26.7	26.7	26.7	86	23.1	0	0	---	0.00	30.354 
08:35	26.9	26.9	26.9	87	23.6	0	0	---	0.00	30.354 
08:40	27.2	27.2	27.2	87	23.9	0	1	248	0.00	30.354 
08:45	27.5	27.5	27.5	88	24.4	0	0	---	0.00	30.353 
08:50	27.8	27.8	27.8	88	24.7	0	1	248	0.00	30.353 
08:55	27.9	27.9	27.9	88	24.8	0	0	---	0.00	30.353 
09:00	28.2	28.2	28.2	88	25.1	0	0	---	0.00	30.352 
09:05	28.7	28.7	28.7	88	25.6	0	1	248	0.00	30.352 
09:10	29.0	29.0	29.0	88	25.9	0	0	---	0.00	30.352 
09:15	29.3	29.3	29.3	88	26.2	0	0	---	0.00	30.350 
09:20	29.5	29.5	29.5	87	26.1	0	1	248	0.00	30.350 
09:25	30.0	30.0	30.0	87	26.6	0	1	248	0.00	30.350 
09:30	30.3	30.3	30.3	86	26.6	0	1	248	0.00	30.350 
09:35	30.7	30.7	30.7	86	27.0	0	1	248	0.00	30.350 
09:40	31.0	31.0	31.0	85	27.0	0	1	248	0.00	30.350 
09:45	31.5	31.5	31.5	84	27.2	0	1	248	0.00	30.343 
09:50	31.8	31.8	31.8	82	26.9	0	1	248	0.00	30.343 
09:55	32.2	32.2	32.2	81	27.0	0	2	248	0.00	30.343 
10:00	32.5	32.5	32.5	80	27.0	0	1	248	0.00	30.333 
10:05	32.9	32.9	32.9	79	27.1	0	2	248	0.00	30.333 
10:10	33.4	33.4	33.4	78	27.3	0	1	248	0.00	30.333 
10:15	33.7	33.7	33.7	77	27.3	0	2	248	0.00	30.329 
10:20	34.0	34.0	34.0	76	27.2	0	2	248	0.00	30.329 
10:25	34.4	34.4	34.4	76	27.6	0	0	---	0.00	30.329 
10:30	34.9	34.9	34.9	75	27.8	0	2	248	0.00	30.321 
10:35	35.3	35.3	35.3	73	27.5	1	3	90	0.00	30.321 
10:40	35.9	35.9	35.9	72	27.8	1	4	112	0.00	30.321 
10:45	36.3	36.3	36.3	71	27.8	1	4	68	0.00	30.321 
10:50	36.8	36.8	36.8	70	27.9	1	4	68	0.00	30.321 
10:55	37.0	37.0	37.0	70	28.1	0	3	248	0.00	30.321 
11:00	37.5	37.5	37.5	70	28.6	0	3	68	0.00	30.320 
11:05	37.9	37.9	37.9	70	29.0	0	2	338	0.00	30.320 
11:10	38.2	38.2	38.2	69	28.9	0	3	225	0.00	30.320 
11:15	38.3	38.3	38.3	68	28.7	1	4	202	0.00	30.311 
11:20	38.6	38.6	38.6	67	28.6	1	3	112	0.00	30.311 
11:25	38.8	38.8	38.8	66	28.4	1	4	90	0.00	30.311 
11:30	38.8	38.8	38.8	65	28.1	1	5	248	0.00	30.298 
11:35	39.1	39.1	39.1	65	28.3	1	5	248	0.00	30.298 
11:40	39.3	39.3	39.3	65	28.5	0	3	248	0.00	30.298 
11:45	39.6	39.6	39.6	65	28.8	1	3	248	0.00	30.290 
11:50	39.9	39.9	39.9	63	28.3	1	4	248	0.00	30.290 
11:55	40.1	40.1	40.1	62	28.1	1	7	248	0.00	30.290 
12:00	40.2	40.2	40.2	61	27.8	2	9	248	0.00	30.278 
12:05	40.3	40.3	40.3	60	27.5	2	7	248	0.00	30.278 
12:10	40.5	40.5	40.5	61	28.1	1	5	248	0.00	30.278 
12:15	40.6	40.6	40.6	60	27.8	2	5	248	0.00	30.264 
12:20	40.9	40.9	40.9	61	28.5	1	5	270	0.00	30.264 
12:25	40.9	40.9	40.9	60	28.1	2	5	248	0.00	30.264 
12:30	40.9	40.9	40.9	60	28.1	2	9	248	0.00	30.259 
12:35	41.1	41.1	41.1	60	28.3	1	5	270	0.00	30.259 
12:40	41.2	41.2	41.2	60	28.4	2	5	292	0.00	30.259 
12:45	41.3	41.3	41.3	59	28.1	2	5	90	0.00	30.248 
12:50	41.6	41.6	41.6	59	28.3	2	5	112	0.00	30.248 
12:55	41.8	41.8	41.8	60	28.9	1	5	22	0.00	30.248 
13:00	41.9	41.9	41.9	59	28.6	3	10	90	0.00	30.233 
13:05	42.1	42.1	42.1	59	28.8	2	7	90	0.00	30.233 
13:10	42.2	42.2	42.2	60	29.3	1	5	248	0.00	30.233 
13:15	42.2	42.2	42.2	59	28.9	3	11	90	0.00	30.224 
13:20	42.3	42.3	42.3	59	29.0	2	6	90	0.00	30.224 
13:25	42.2	42.2	42.2	58	28.5	3	7	112	0.00	30.224 
13:30	42.2	42.2	42.2	59	28.9	1	4	112	0.00	30.206 
13:35	42.3	42.3	42.3	58	28.6	2	6	248	0.00	30.206 
13:40	42.6	42.6	42.6	58	28.9	1	4	270	0.00	30.206 
13:45	42.9	42.9	42.9	59	29.6	1	4	248	0.00	30.206 
13:50	43.1	43.1	43.1	58	29.3	2	8	90	0.00	30.206 
13:55	43.1	43.1	43.1	58	29.3	2	9	90	0.00	30.206 
14:00	43.2	43.2	43.2	57	29.0	1	5	248	0.00	30.194 
14:05	43.3	43.3	43.3	56	28.7	1	3	248	0.00	30.194 
14:10	43.6	43.6	43.6	56	29.0	1	3	248	0.00	30.194 
14:15	43.6	43.6	43.6	56	29.0	2	6	90	0.00	30.171 
14:20	43.6	43.6	43.6	56	29.0	1	4	225	0.00	30.171 
14:25	43.8	43.8	43.8	55	28.7	1	4	248	0.00	30.171 
14:30	43.8	43.8	43.8	55	28.7	1	3	135	0.00	30.150 
14:35	43.9	43.9	43.9	56	29.2	2	3	112	0.00	30.150 
14:40	43.8	43.8	43.8	55	28.7	2	5	112	0.00	30.150 
14:45	43.8	43.8	43.8	57	29.6	1	4	112	0.00	30.137 
14:50	43.6	43.6	43.6	56	29.0	1	4	90	0.00	30.137 
14:55	43.6	43.6	43.6	56	29.0	1	5	68	0.00	30.137 
15:00	43.9	43.9	43.9	55	28.8	2	7	90	0.00	30.136 
15:05	43.8	43.8	43.8	56	29.1	0	2	90	0.00	30.136 
15:10	43.6	43.6	43.6	57	29.4	1	3	68	0.00	30.136 
15:15	43.5	43.5	43.5	58	29.7	1	3	112	0.00	30.131 
15:20	43.3	43.3	43.3	57	29.1	1	3	45	0.00	30.131 
15:25	43.2	43.2	43.2	57	29.0	1	5	248	0.00	30.131 
15:30	43.1	43.1	43.1	57	28.9	1	3	248	0.00	30.139 
15:35	43.1	43.1	43.1	58	29.3	0	2	68	0.00	30.139 
15:40	43.1	43.1	43.1	58	29.3	1	6	248	0.00	30.139 
15:45	43.1	43.1	43.1	58	29.3	1	3	270	0.00	30.141 
15:50	43.1	43.1	43.1	58	29.3	1	4	225	0.00	30.141 
15:55	43.1	43.1	43.1	58	29.3	1	2	292	0.00	30.141 
16:00	42.9	42.9	42.9	58	29.2	1	3	270	0.00	30.144 
16:05	42.8	42.8	42.8	59	29.5	1	4	248	0.00	30.144 
16:10	42.6	42.6	42.6	60	29.7	0	2	90	0.00	30.144 
16:15	42.5	42.5	42.5	60	29.6	0	2	90	0.00	30.144 
16:20	42.3	42.3	42.3	61	29.8	0	3	90	0.00	30.144 
16:25	42.1	42.1	42.1	62	30.0	0	2	90	0.00	30.144 
16:30	41.9	41.9	41.9	61	29.4	0	1	90	0.00	30.138 
16:35	41.8	41.8	41.8	62	29.7	0	4	90	0.00	30.138 
16:40	41.8	41.8	41.8	62	29.7	0	2	90	0.00	30.138 
16:45	41.6	41.6	41.6	62	29.6	0	2	90	0.00	30.136 
16:50	41.5	41.5	41.5	63	29.9	0	0	---	0.00	30.136 
16:55	41.2	41.2	41.2	63	29.6	0	2	90	0.00	30.136 
17:00	41.1	41.1	41.1	63	29.5	0	2	90	0.00	30.122 
17:05	41.1	41.1	41.1	63	29.5	0	1	90	0.00	30.122 
17:10	40.9	40.9	40.9	63	29.3	0	0	---	0.00	30.122 
17:15	40.6	40.6	40.6	64	29.4	0	1	90	0.00	30.124 
17:20	40.5	40.5	40.5	65	29.7	0	2	90	0.00	30.124 
17:25	40.1	40.1	40.1	65	29.3	0	0	---	0.00	30.124 
17:30	39.8	39.8	39.8	66	29.4	0	1	90	0.00	30.127 
17:35	39.5	39.5	39.5	66	29.1	0	1	90	0.00	30.127 
17:40	39.3	39.3	39.3	67	29.3	0	2	90	0.00	30.127 
17:45	39.3	39.3	39.3	67	29.3	0	1	90	0.00	30.122 
17:50	39.3	39.3	39.3	67	29.3	0	1	90	0.00	30.122 
17:55	39.2	39.2	39.2	67	29.2	0	0	---	0.00	30.122 
18:00	38.9	38.9	38.9	67	28.9	0	0	---	0.00	30.119 
18:05	38.9	38.9	38.9	68	29.3	0	1	90	0.00	30.119 
18:10	38.8	38.8	38.8	68	29.2	0	0	---	0.00	30.119 
18:15	38.6	38.6	38.6	68	29.0	0	0	---	0.00	30.118 
18:20	38.5	38.5	38.5	68	28.9	0	0	---	0.00	30.118 
18:25	38.3	38.3	38.3	69	29.0	0	0	---	0.00	30.118 
18:30	38.2	38.2	38.2	69	28.9	0	0	---	0.00	30.119 
18:35	38.0	38.0	38.0	69	28.7	0	0	---	0.00	30.119 
18:40	37.8	37.8	37.8	69	28.6	0	0	---	0.00	30.119 
18:45	37.6	37.6	37.6	69	28.4	0	0	---	0.00	30.127 
18:50	37.5	37.5	37.5	70	28.6	0	0	---	0.00	30.127 
18:55	37.5	37.5	37.5	70	28.6	0	0	---	0.00	30.127 
19:00	37.5	37.5	37.5	70	28.6	0	0	---	0.00	30.116 
19:05	37.3	37.3	37.3	70	28.4	0	0	---	0.00	30.116 
19:10	37.3	37.3	37.3	70	28.4	0	0	---	0.00	30.116 
19:15	37.2	37.2	37.2	71	28.7	0	0	---	0.00	30.118 
19:20	37.0	37.0	37.0	71	28.5	0	0	---	0.00	30.118 
19:25	36.9	36.9	36.9	72	28.7	0	0	---	0.00	30.118 
19:30	36.9	36.9	36.9	73	29.1	0	0	---	0.00	30.111 
19:35	36.9	36.9	36.9	73	29.1	0	0	---	0.00	30.111 
19:40	36.8	36.8	36.8	73	29.0	0	0	---	0.00	30.111 
19:45	36.8	36.8	36.8	73	29.0	0	0	---	0.00	30.103 
19:50	36.6	36.6	36.6	73	28.8	0	0	---	0.00	30.103 
19:55	36.6	36.6	36.6	74	29.1	0	0	---	0.00	30.103 
20:00	36.5	36.5	36.5	74	29.0	0	0	---	0.00	30.101 
20:05	36.3	36.3	36.3	74	28.8	0	0	---	0.00	30.101 
20:10	36.3	36.3	36.3	75	29.1	0	0	---	0.00	30.101 
20:15	36.2	36.2	36.2	75	29.1	0	0	---	0.00	30.090 
20:20	36.2	36.2	36.2	75	29.1	0	0	---	0.00	30.090 
20:25	36.2	36.2	36.2	76	29.4	0	0	---	0.00	30.090 
20:30	36.2	36.2	36.2	76	29.4	0	0	---	0.00	30.092 
20:35	36.2	36.2	36.2	76	29.4	0	0	---	0.00	30.092 
20:40	36.2	36.2	36.2	76	29.4	0	0	---	0.00	30.092 
20:45	36.2	36.2	36.2	76	29.4	0	0	---	0.00	30.086 
20:50	36.2	36.2	36.2	77	29.7	0	0	---	0.00	30.086 
20:55	36.3	36.3	36.3	76	29.5	0	0	---	0.00	30.086 
21:00	36.3	36.3	36.3	76	29.5	0	0	---	0.00	30.070 
21:05	36.3	36.3	36.3	76	29.5	0	1	90	0.00	30.070 
21:10	36.5	36.5	36.5	76	29.7	0	0	---	0.00	30.070 
21:15	36.5	36.5	36.5	76	29.7	0	1	90	0.00	30.061 
21:20	36.5	36.5	36.5	76	29.7	0	0	---	0.00	30.061 
21:25	36.3	36.3	36.3	76	29.5	0	0	---	0.00	30.061 
21:30	36.3	36.3	36.3	76	29.5	0	0	---	0.00	30.051 
21:35	36.2	36.2	36.2	76	29.4	0	1	90	0.00	30.051 
21:40	36.0	36.0	36.0	76	29.2	0	0	---	0.00	30.051 
21:45	35.9	35.9	35.9	76	29.1	0	0	---	0.00	30.051 
21:50	35.8	35.8	35.8	76	29.0	0	0	---	0.00	30.051 
21:55	35.6	35.6	35.6	76	28.8	0	0	---	0.00	30.051 
22:00	35.5	35.5	35.5	77	29.0	0	0	---	0.00	30.046 
22:05	35.3	35.3	35.3	77	28.8	0	0	---	0.00	30.046 
22:10	35.2	35.2	35.2	77	28.7	0	0	---	0.00	30.046 
22:15	35.2	35.2	35.2	78	29.0	0	0	---	0.00	30.028 
22:20	35.2	35.2	35.2	78	29.0	0	0	---	0.00	30.028 
22:25	35.2	35.2	35.2	78	29.0	0	0	---	0.00	30.028 
22:30	35.0	35.0	35.0	78	28.8	0	0	---	0.00	30.021 
22:35	35.0	35.0	35.0	78	28.8	0	0	---	0.00	30.021 
22:40	35.0	35.0	35.0	79	29.2	0	0	---	0.00	30.021 
22:45	35.0	35.0	35.0	79	29.2	0	0	---	0.00	30.016 
22:50	35.0	35.0	35.0	79	29.2	0	0	---	0.00	30.016 
22:55	34.9	34.9	34.9	79	29.1	0	0	---	0.00	30.016 
23:00	34.9	34.9	34.9	79	29.1	0	0	---	0.00	30.005 
23:05	35.2	35.2	35.2	79	29.4	0	1	90	0.00	30.005 
23:10	35.3	35.3	35.3	78	29.1	0	0	---	0.00	30.005 
23:15	35.5	35.5	35.5	78	29.3	0	0	---	0.00	29.982 
23:20	35.5	35.5	35.5	78	29.3	0	0	---	0.00	29.982 
23:25	35.5	35.5	35.5	78	29.3	0	0	---	0.00	29.982 
23:30	35.3	35.3	35.3	78	29.1	0	0	---	0.00	29.979 
23:35	35.3	35.3	35.3	78	29.1	0	1	90	0.00	29.979 
23:40	35.3	35.3	35.3	78	29.1	0	0	---	0.00	29.979 
23:45	35.3	35.3	35.3	79	29.4	0	2	90	0.00	29.991 
23:50	35.3	35.3	35.3	79	29.4	0	2	90	0.00	29.991 
23:55	35.5	35.5	35.5	79	29.6	0	2	90	0.00	29.991 

CoCoRaHS
IN-AL-39
A2 Web Hosting
Creative Commons License
GoDaddy
search engine by freefind advanced

loaded 2018-11-20 06:11:11 • last modified 2010-11-18 10:43:29
Privacy PolicyDisclaimer
• wx.awcolley.com is powered by PmWiki v.2002016 •
• all content (unless otherwise noted) © 2018 A W Colley